sensor_id;sensor_type;location;lat;lon;timestamp;pressure;altitude;pressure_sealevel;temperature;humidity
77003;BME280;65939;50.060;14.288;2024-03-23T00:55:05;96499.34;;;12.58;74.35
77003;BME280;65939;50.060;14.288;2024-03-23T00:57:06;96498.38;;;12.59;74.63
77003;BME280;65939;50.060;14.288;2024-03-23T00:59:06;96504.44;;;12.60;74.09
77003;BME280;65939;50.060;14.288;2024-03-23T01:01:07;96493.16;;;12.59;75.07
77003;BME280;65939;50.060;14.288;2024-03-23T01:03:08;96492.31;;;12.59;74.71
77003;BME280;65939;50.060;14.288;2024-03-23T01:05:08;96481.84;;;12.59;74.50
77003;BME280;65939;50.060;14.288;2024-03-23T01:07:09;96483.47;;;12.60;73.93
77003;BME280;65939;50.060;14.288;2024-03-23T01:09:10;96483.66;;;12.58;74.01
77003;BME280;65939;50.060;14.288;2024-03-23T01:11:11;96482.84;;;12.58;74.37
77003;BME280;65939;50.060;14.288;2024-03-23T01:13:12;96482.84;;;12.58;74.10
77003;BME280;65939;50.060;14.288;2024-03-23T01:15:13;96483.84;;;12.57;73.69
77003;BME280;65939;50.060;14.288;2024-03-23T01:17:13;96477.81;;;12.56;74.23
77003;BME280;65939;50.060;14.288;2024-03-23T01:19:14;96475.34;;;12.55;74.88
77003;BME280;65939;50.060;14.288;2024-03-23T01:21:14;96468.50;;;12.54;74.50
77003;BME280;65939;50.060;14.288;2024-03-23T01:23:15;96476.38;;;12.54;75.24
77003;BME280;65939;50.060;14.288;2024-03-23T01:25:16;96465.09;;;12.53;74.52
77003;BME280;65939;50.060;14.288;2024-03-23T01:27:17;96460.00;;;12.52;74.64
77003;BME280;65939;50.060;14.288;2024-03-23T01:29:17;96461.84;;;12.51;74.45
77003;BME280;65939;50.060;14.288;2024-03-23T01:31:18;96459.41;;;12.50;75.04
77003;BME280;65939;50.060;14.288;2024-03-23T01:33:19;96457.78;;;12.49;74.68
77003;BME280;65939;50.060;14.288;2024-03-23T01:35:20;96456.34;;;12.46;74.57
77003;BME280;65939;50.060;14.288;2024-03-23T01:37:20;96452.31;;;12.43;74.61
77003;BME280;65939;50.060;14.288;2024-03-23T01:39:21;96451.06;;;12.39;75.41
77003;BME280;65939;50.060;14.288;2024-03-23T01:41:24;96449.81;;;12.35;74.47
77003;BME280;65939;50.060;14.288;2024-03-23T01:43:24;96452.16;;;12.30;75.12
77003;BME280;65939;50.060;14.288;2024-03-23T01:45:25;96455.34;;;12.26;75.76
77003;BME280;65939;50.060;14.288;2024-03-23T01:47:26;96451.66;;;12.20;75.33
77003;BME280;65939;50.060;14.288;2024-03-23T01:49:26;96443.22;;;12.18;75.02
77003;BME280;65939;50.060;14.288;2024-03-23T01:51:29;96434.13;;;12.14;75.74
77003;BME280;65939;50.060;14.288;2024-03-23T01:53:30;96437.28;;;12.09;75.65
77003;BME280;65939;50.060;14.288;2024-03-23T01:55:32;96430.78;;;12.05;76.05
77003;BME280;65939;50.060;14.288;2024-03-23T01:57:32;96434.59;;;12.03;76.82
77003;BME280;65939;50.060;14.288;2024-03-23T01:59:33;96430.56;;;12.00;76.67
77003;BME280;65939;50.060;14.288;2024-03-23T02:01:37;96424.88;;;11.96;76.17
77003;BME280;65939;50.060;14.288;2024-03-23T02:03:38;96427.50;;;11.96;76.50
77003;BME280;65939;50.060;14.288;2024-03-23T02:05:38;96418.03;;;11.95;76.43
77003;BME280;65939;50.060;14.288;2024-03-23T02:07:40;96419.81;;;11.95;75.97
77003;BME280;65939;50.060;14.288;2024-03-23T02:09:41;96415.59;;;11.94;76.46
77003;BME280;65939;50.060;14.288;2024-03-23T02:11:42;96410.56;;;11.92;75.83
77003;BME280;65939;50.060;14.288;2024-03-23T02:13:42;96407.13;;;11.92;77.20
77003;BME280;65939;50.060;14.288;2024-03-23T02:15:43;96415.94;;;11.91;76.94
77003;BME280;65939;50.060;14.288;2024-03-23T02:17:45;96403.06;;;11.89;76.30
77003;BME280;65939;50.060;14.288;2024-03-23T02:19:45;96397.84;;;11.89;76.83
77003;BME280;65939;50.060;14.288;2024-03-23T02:21:47;96393.78;;;11.87;76.18
77003;BME280;65939;50.060;14.288;2024-03-23T02:23:47;96391.38;;;11.85;77.24
77003;BME280;65939;50.060;14.288;2024-03-23T02:25:48;96383.69;;;11.84;76.53
77003;BME280;65939;50.060;14.288;2024-03-23T02:27:49;96388.44;;;11.80;77.01
77003;BME280;65939;50.060;14.288;2024-03-23T02:29:50;96376.75;;;11.76;76.80
77003;BME280;65939;50.060;14.288;2024-03-23T02:31:50;96377.91;;;11.73;76.15
77003;BME280;65939;50.060;14.288;2024-03-23T02:33:51;96373.25;;;11.69;77.29
77003;BME280;65939;50.060;14.288;2024-03-23T02:35:56;96370.19;;;11.65;77.21
77003;BME280;65939;50.060;14.288;2024-03-23T02:37:57;96362.91;;;11.61;77.00
77003;BME280;65939;50.060;14.288;2024-03-23T02:39:58;96360.66;;;11.58;77.29
77003;BME280;65939;50.060;14.288;2024-03-23T02:41:59;96362.84;;;11.54;76.80
77003;BME280;65939;50.060;14.288;2024-03-23T02:43:59;96360.59;;;11.51;77.30
77003;BME280;65939;50.060;14.288;2024-03-23T02:46:00;96360.94;;;11.48;77.77
77003;BME280;65939;50.060;14.288;2024-03-23T02:48:01;96362.13;;;11.45;77.75
77003;BME280;65939;50.060;14.288;2024-03-23T02:50:02;96363.13;;;11.44;77.88
77003;BME280;65939;50.060;14.288;2024-03-23T02:52:03;96363.50;;;11.41;78.52
77003;BME280;65939;50.060;14.288;2024-03-23T02:54:04;96351.63;;;11.39;77.33
77003;BME280;65939;50.060;14.288;2024-03-23T02:56:05;96349.97;;;11.38;78.08
77003;BME280;65939;50.060;14.288;2024-03-23T02:58:05;96349.53;;;11.34;78.19
77003;BME280;65939;50.060;14.288;2024-03-23T03:00:06;96340.44;;;11.30;77.68
77003;BME280;65939;50.060;14.288;2024-03-23T03:02:07;96343.25;;;11.29;78.08
77003;BME280;65939;50.060;14.288;2024-03-23T03:04:08;96339.41;;;11.24;78.45
77003;BME280;65939;50.060;14.288;2024-03-23T03:06:09;96324.09;;;11.21;78.42
77003;BME280;65939;50.060;14.288;2024-03-23T03:08:09;96327.84;;;11.19;78.85
77003;BME280;65939;50.060;14.288;2024-03-23T03:10:10;96326.59;;;11.15;78.65
77003;BME280;65939;50.060;14.288;2024-03-23T03:12:11;96317.53;;;11.11;79.23
77003;BME280;65939;50.060;14.288;2024-03-23T03:14:12;96315.28;;;11.08;78.60
77003;BME280;65939;50.060;14.288;2024-03-23T03:16:13;96315.81;;;11.03;79.41
77003;BME280;65939;50.060;14.288;2024-03-23T03:18:14;96307.53;;;10.99;79.12
77003;BME280;65939;50.060;14.288;2024-03-23T03:20:15;96313.50;;;10.93;79.23
77003;BME280;65939;50.060;14.288;2024-03-23T03:22:16;96307.00;;;10.89;79.10
77003;BME280;65939;50.060;14.288;2024-03-23T03:24:17;96304.94;;;10.85;79.59
77003;BME280;65939;50.060;14.288;2024-03-23T03:26:17;96298.44;;;10.81;79.47
77003;BME280;65939;50.060;14.288;2024-03-23T03:28:18;96294.78;;;10.75;79.94
77003;BME280;65939;50.060;14.288;2024-03-23T03:30:18;96286.66;;;10.70;79.24
77003;BME280;65939;50.060;14.288;2024-03-23T03:32:19;96286.41;;;10.65;79.40
77003;BME280;65939;50.060;14.288;2024-03-23T03:34:20;96287.75;;;10.61;79.52
77003;BME280;65939;50.060;14.288;2024-03-23T03:36:20;96286.50;;;10.57;80.22
77003;BME280;65939;50.060;14.288;2024-03-23T03:38:21;96278.41;;;10.51;79.99
77003;BME280;65939;50.060;14.288;2024-03-23T03:40:22;96278.13;;;10.46;79.76
77003;BME280;65939;50.060;14.288;2024-03-23T03:42:22;96270.81;;;10.42;80.28
77003;BME280;65939;50.060;14.288;2024-03-23T03:44:23;96266.16;;;10.37;80.84
77003;BME280;65939;50.060;14.288;2024-03-23T03:46:24;96273.72;;;10.32;80.30
77003;BME280;65939;50.060;14.288;2024-03-23T03:48:25;96273.28;;;10.28;81.15
77003;BME280;65939;50.060;14.288;2024-03-23T03:50:25;96266.91;;;10.23;81.27
77003;BME280;65939;50.060;14.288;2024-03-23T03:52:26;96267.28;;;10.20;81.06
77003;BME280;65939;50.060;14.288;2024-03-23T03:54:27;96268.63;;;10.16;81.42
77003;BME280;65939;50.060;14.288;2024-03-23T03:56:28;96268.38;;;10.11;81.11
77003;BME280;65939;50.060;14.288;2024-03-23T03:58:28;96269.53;;;10.08;81.32
77003;BME280;65939;50.060;14.288;2024-03-23T04:00:29;96268.88;;;10.06;81.83
77003;BME280;65939;50.060;14.288;2024-03-23T04:02:30;96265.00;;;10.02;82.00
77003;BME280;65939;50.060;14.288;2024-03-23T04:04:30;96266.81;;;10.01;81.31
77003;BME280;65939;50.060;14.288;2024-03-23T04:06:31;96264.47;;;10.06;82.62
77003;BME280;65939;50.060;14.288;2024-03-23T04:08:33;96266.22;;;10.14;82.85
77003;BME280;65939;50.060;14.288;2024-03-23T04:10:34;96253.22;;;10.21;82.39
77003;BME280;65939;50.060;14.288;2024-03-23T04:12:35;96249.78;;;10.28;82.43
77003;BME280;65939;50.060;14.288;2024-03-23T04:14:35;96246.44;;;10.35;82.40
77003;BME280;65939;50.060;14.288;2024-03-23T04:16:36;96238.09;;;10.39;82.53
77003;BME280;65939;50.060;14.288;2024-03-23T04:18:37;96232.50;;;10.42;81.90
77003;BME280;65939;50.060;14.288;2024-03-23T04:20:37;96223.50;;;10.45;82.13
77003;BME280;65939;50.060;14.288;2024-03-23T04:22:38;96236.38;;;10.46;82.04
77003;BME280;65939;50.060;14.288;2024-03-23T04:24:39;96232.97;;;10.46;81.40
77003;BME280;65939;50.060;14.288;2024-03-23T04:26:43;96226.91;;;10.45;81.92
77003;BME280;65939;50.060;14.288;2024-03-23T04:28:43;96234.94;;;10.44;81.41
77003;BME280;65939;50.060;14.288;2024-03-23T04:30:44;96233.69;;;10.40;81.87
77003;BME280;65939;50.060;14.288;2024-03-23T04:32:45;96227.22;;;10.36;81.64
77003;BME280;65939;50.060;14.288;2024-03-23T04:34:46;96225.94;;;10.31;80.97
77003;BME280;65939;50.060;14.288;2024-03-23T04:36:47;96229.88;;;10.27;80.96
77003;BME280;65939;50.060;14.288;2024-03-23T04:38:48;96212.16;;;10.23;80.99
77003;BME280;65939;50.060;14.288;2024-03-23T04:40:57;96222.94;;;10.20;81.54
77003;BME280;65939;50.060;14.288;2024-03-23T04:42:58;96221.31;;;10.19;81.46
77003;BME280;65939;50.060;14.288;2024-03-23T04:45:00;96216.66;;;10.14;81.42
77003;BME280;65939;50.060;14.288;2024-03-23T04:47:00;96221.41;;;10.11;81.40
77003;BME280;65939;50.060;14.288;2024-03-23T04:49:01;96218.16;;;10.08;81.36
77003;BME280;65939;50.060;14.288;2024-03-23T04:51:05;96215.91;;;10.05;81.69
77003;BME280;65939;50.060;14.288;2024-03-23T04:53:05;96219.50;;;10.04;81.60
77003;BME280;65939;50.060;14.288;2024-03-23T04:55:06;96219.88;;;10.01;81.67
77003;BME280;65939;50.060;14.288;2024-03-23T04:57:07;96214.66;;;10.01;81.97
77003;BME280;65939;50.060;14.288;2024-03-23T04:59:08;96209.44;;;10.01;82.42
77003;BME280;65939;50.060;14.288;2024-03-23T05:01:10;96203.22;;;10.02;81.83
77003;BME280;65939;50.060;14.288;2024-03-23T05:03:10;96205.69;;;10.04;82.21
77003;BME280;65939;50.060;14.288;2024-03-23T05:05:11;96193.09;;;10.07;82.60
77003;BME280;65939;50.060;14.288;2024-03-23T05:07:12;96194.34;;;10.12;82.40
77003;BME280;65939;50.060;14.288;2024-03-23T05:09:13;96193.63;;;10.18;82.63
77003;BME280;65939;50.060;14.288;2024-03-23T05:11:14;96185.25;;;10.22;82.19
77003;BME280;65939;50.060;14.288;2024-03-23T05:13:14;96177.56;;;10.29;82.77
77003;BME280;65939;50.060;14.288;2024-03-23T05:15:15;96177.44;;;10.37;82.80
77003;BME280;65939;50.060;14.288;2024-03-23T05:17:16;96179.13;;;10.45;82.17
77003;BME280;65939;50.060;14.288;2024-03-23T05:19:16;96179.88;;;10.53;82.62
77003;BME280;65939;50.060;14.288;2024-03-23T05:21:17;96176.34;;;10.61;82.46
77003;BME280;65939;50.060;14.288;2024-03-23T05:23:18;96170.19;;;10.69;82.88
77003;BME280;65939;50.060;14.288;2024-03-23T05:25:19;96168.28;;;10.77;82.20
77003;BME280;65939;50.060;14.288;2024-03-23T05:27:19;96160.34;;;10.86;82.60
77003;BME280;65939;50.060;14.288;2024-03-23T05:29:20;96164.63;;;10.93;82.51
77003;BME280;65939;50.060;14.288;2024-03-23T05:31:30;96160.28;;;11.00;81.54
77003;BME280;65939;50.060;14.288;2024-03-23T05:33:31;96157.91;;;11.06;82.23
77003;BME280;65939;50.060;14.288;2024-03-23T05:35:32;96165.81;;;11.12;81.25
77003;BME280;65939;50.060;14.288;2024-03-23T05:37:33;96147.38;;;11.14;81.82
77003;BME280;65939;50.060;14.288;2024-03-23T05:39:34;96143.38;;;11.18;81.33
77003;BME280;65939;50.060;14.288;2024-03-23T05:41:36;96146.41;;;11.21;81.11
77003;BME280;65939;50.060;14.288;2024-03-23T05:43:36;96141.00;;;11.23;80.51
77003;BME280;65939;50.060;14.288;2024-03-23T05:45:37;96142.22;;;11.27;81.24
77003;BME280;65939;50.060;14.288;2024-03-23T05:47:38;96146.28;;;11.30;80.82
77003;BME280;65939;50.060;14.288;2024-03-23T05:49:38;96138.25;;;11.31;80.25
77003;BME280;65939;50.060;14.288;2024-03-23T05:51:39;96132.66;;;11.34;80.69
77003;BME280;65939;50.060;14.288;2024-03-23T05:53:40;96139.09;;;11.38;80.81
77003;BME280;65939;50.060;14.288;2024-03-23T05:55:40;96136.13;;;11.41;80.62
77003;BME280;65939;50.060;14.288;2024-03-23T05:57:41;96139.00;;;11.46;80.59
77003;BME280;65939;50.060;14.288;2024-03-23T05:59:42;96130.13;;;11.47;79.70
77003;BME280;65939;50.060;14.288;2024-03-23T06:01:43;96127.78;;;11.53;80.14
77003;BME280;65939;50.060;14.288;2024-03-23T06:03:44;96131.81;;;11.55;79.19
77003;BME280;65939;50.060;14.288;2024-03-23T06:05:44;96132.22;;;11.59;79.24
77003;BME280;65939;50.060;14.288;2024-03-23T06:07:45;96126.63;;;11.62;79.02
77003;BME280;65939;50.060;14.288;2024-03-23T06:09:46;96127.06;;;11.65;79.39
77003;BME280;65939;50.060;14.288;2024-03-23T06:11:46;96095.50;;;11.67;79.01
77003;BME280;65939;50.060;14.288;2024-03-23T06:13:48;96099.53;;;11.69;79.04
77003;BME280;65939;50.060;14.288;2024-03-23T06:15:49;96110.41;;;11.73;78.67
77003;BME280;65939;50.060;14.288;2024-03-23T06:17:50;96103.78;;;11.77;78.62
77003;BME280;65939;50.060;14.288;2024-03-23T06:19:50;96100.78;;;11.80;78.20
77003;BME280;65939;50.060;14.288;2024-03-23T06:21:51;96093.56;;;11.82;78.84
77003;BME280;65939;50.060;14.288;2024-03-23T06:23:52;96092.22;;;11.86;79.05
77003;BME280;65939;50.060;14.288;2024-03-23T06:25:53;96085.41;;;11.92;78.03
77003;BME280;65939;50.060;14.288;2024-03-23T06:27:53;96080.41;;;11.97;77.98
77003;BME280;65939;50.060;14.288;2024-03-23T06:29:54;96070.97;;;12.03;78.13
77003;BME280;65939;50.060;14.288;2024-03-23T06:31:55;96067.56;;;12.09;78.13
77003;BME280;65939;50.060;14.288;2024-03-23T06:33:55;96062.19;;;12.17;78.41
77003;BME280;65939;50.060;14.288;2024-03-23T06:35:56;96057.56;;;12.26;78.27
77003;BME280;65939;50.060;14.288;2024-03-23T06:37:58;96061.22;;;12.31;77.73
77003;BME280;65939;50.060;14.288;2024-03-23T06:39:58;96068.88;;;12.39;76.83
77003;BME280;65939;50.060;14.288;2024-03-23T06:41:59;96065.66;;;12.44;76.27
77003;BME280;65939;50.060;14.288;2024-03-23T06:44:00;96060.03;;;12.47;77.23
77003;BME280;65939;50.060;14.288;2024-03-23T06:46:03;96049.56;;;12.47;76.62
77003;BME280;65939;50.060;14.288;2024-03-23T06:48:05;96058.22;;;12.48;76.29
77003;BME280;65939;50.060;14.288;2024-03-23T06:50:08;96060.47;;;12.51;76.78
77003;BME280;65939;50.060;14.288;2024-03-23T06:52:10;96049.78;;;12.59;76.77
77003;BME280;65939;50.060;14.288;2024-03-23T06:54:11;96043.38;;;12.68;77.06
77003;BME280;65939;50.060;14.288;2024-03-23T06:56:12;96038.16;;;12.75;75.80
77003;BME280;65939;50.060;14.288;2024-03-23T06:58:13;96030.31;;;12.81;75.87
77003;BME280;65939;50.060;14.288;2024-03-23T07:00:14;96031.50;;;12.85;76.13
77003;BME280;65939;50.060;14.288;2024-03-23T07:02:16;96030.09;;;12.89;75.19
77003;BME280;65939;50.060;14.288;2024-03-23T07:04:17;96029.09;;;12.90;75.19
77003;BME280;65939;50.060;14.288;2024-03-23T07:06:19;96015.78;;;12.92;74.78
77003;BME280;65939;50.060;14.288;2024-03-23T07:08:19;96015.00;;;12.91;75.17
77003;BME280;65939;50.060;14.288;2024-03-23T07:10:21;96007.53;;;12.88;75.56
77003;BME280;65939;50.060;14.288;2024-03-23T07:12:22;95999.47;;;12.83;74.40
77003;BME280;65939;50.060;14.288;2024-03-23T07:14:23;95991.00;;;12.81;74.77
77003;BME280;65939;50.060;14.288;2024-03-23T07:16:26;95997.25;;;12.80;75.42
77003;BME280;65939;50.060;14.288;2024-03-23T07:18:27;95990.41;;;12.79;74.68
77003;BME280;65939;50.060;14.288;2024-03-23T07:20:27;95986.19;;;12.78;75.60
77003;BME280;65939;50.060;14.288;2024-03-23T07:22:30;95984.13;;;12.80;75.36
77003;BME280;65939;50.060;14.288;2024-03-23T07:24:32;95978.72;;;12.82;76.60
77003;BME280;65939;50.060;14.288;2024-03-23T07:26:33;95971.84;;;12.87;75.92
77003;BME280;65939;50.060;14.288;2024-03-23T07:28:34;95973.28;;;12.97;76.91
77003;BME280;65939;50.060;14.288;2024-03-23T07:30:36;95971.03;;;13.07;75.95
77003;BME280;65939;50.060;14.288;2024-03-23T07:32:37;95978.50;;;13.16;76.77
77003;BME280;65939;50.060;14.288;2024-03-23T07:34:37;95969.63;;;13.24;76.21
77003;BME280;65939;50.060;14.288;2024-03-23T07:36:38;95959.94;;;13.31;75.77
77003;BME280;65939;50.060;14.288;2024-03-23T07:38:42;95952.88;;;13.38;76.23
77003;BME280;65939;50.060;14.288;2024-03-23T07:40:45;95958.69;;;13.47;75.41
77003;BME280;65939;50.060;14.288;2024-03-23T07:42:46;95959.28;;;13.56;75.63
77003;BME280;65939;50.060;14.288;2024-03-23T07:44:46;95948.31;;;13.65;76.25
77003;BME280;65939;50.060;14.288;2024-03-23T07:46:47;95945.50;;;13.74;75.02
77003;BME280;65939;50.060;14.288;2024-03-23T07:48:47;95933.16;;;13.81;74.68
77003;BME280;65939;50.060;14.288;2024-03-23T07:51:03;95933.28;;;13.93;73.74
77003;BME280;65939;50.060;14.288;2024-03-23T07:53:04;95926.78;;;14.02;73.50
77003;BME280;65939;50.060;14.288;2024-03-23T07:55:05;95923.47;;;14.13;73.62
77003;BME280;65939;50.060;14.288;2024-03-23T07:57:06;95927.25;;;14.24;72.89
77003;BME280;65939;50.060;14.288;2024-03-23T07:59:06;95936.28;;;14.34;72.35
77003;BME280;65939;50.060;14.288;2024-03-23T08:01:11;95941.84;;;14.45;71.98
77003;BME280;65939;50.060;14.288;2024-03-23T08:03:13;95939.56;;;14.55;72.38
77003;BME280;65939;50.060;14.288;2024-03-23T08:05:13;95916.25;;;14.65;71.85
77003;BME280;65939;50.060;14.288;2024-03-23T08:07:14;95933.13;;;14.76;71.81
77003;BME280;65939;50.060;14.288;2024-03-23T08:09:15;95937.34;;;14.83;70.23
77003;BME280;65939;50.060;14.288;2024-03-23T08:11:15;95921.72;;;14.89;68.29
77003;BME280;65939;50.060;14.288;2024-03-23T08:13:16;95918.66;;;14.92;67.65
77003;BME280;65939;50.060;14.288;2024-03-23T08:15:17;95922.03;;;14.99;67.90
77003;BME280;65939;50.060;14.288;2024-03-23T08:17:17;95912.69;;;15.03;67.26
77003;BME280;65939;50.060;14.288;2024-03-23T08:19:18;95905.16;;;15.06;66.59
77003;BME280;65939;50.060;14.288;2024-03-23T08:21:19;95918.25;;;15.13;67.11
77003;BME280;65939;50.060;14.288;2024-03-23T08:23:19;95903.22;;;15.20;66.57
77003;BME280;65939;50.060;14.288;2024-03-23T08:25:20;95903.56;;;15.24;66.04
77003;BME280;65939;50.060;14.288;2024-03-23T08:27:21;95916.00;;;15.35;66.36
77003;BME280;65939;50.060;14.288;2024-03-23T08:29:21;95909.13;;;15.52;65.50
77003;BME280;65939;50.060;14.288;2024-03-23T08:31:22;95907.28;;;15.71;66.68
77003;BME280;65939;50.060;14.288;2024-03-23T08:33:23;95899.34;;;15.90;66.22
77003;BME280;65939;50.060;14.288;2024-03-23T08:35:25;95896.09;;;16.06;64.77
77003;BME280;65939;50.060;14.288;2024-03-23T08:37:26;95895.22;;;16.24;64.41
77003;BME280;65939;50.060;14.288;2024-03-23T08:39:27;95903.59;;;16.33;64.46
77003;BME280;65939;50.060;14.288;2024-03-23T08:41:28;95879.13;;;16.44;63.94
77003;BME280;65939;50.060;14.288;2024-03-23T08:43:30;95891.28;;;16.57;63.08
77003;BME280;65939;50.060;14.288;2024-03-23T08:45:31;95886.69;;;16.64;63.02
77003;BME280;65939;50.060;14.288;2024-03-23T08:47:34;95892.78;;;16.64;62.44
77003;BME280;65939;50.060;14.288;2024-03-23T08:49:35;95903.75;;;16.61;62.09
77003;BME280;65939;50.060;14.288;2024-03-23T08:51:35;95904.69;;;16.55;61.37
77003;BME280;65939;50.060;14.288;2024-03-23T08:53:37;95895.50;;;16.46;61.32
77003;BME280;65939;50.060;14.288;2024-03-23T08:55:38;95899.72;;;16.35;60.55
77003;BME280;65939;50.060;14.288;2024-03-23T08:57:39;95895.00;;;16.25;61.14
77003;BME280;65939;50.060;14.288;2024-03-23T08:59:39;95904.81;;;16.18;61.06
77003;BME280;65939;50.060;14.288;2024-03-23T09:01:40;95912.03;;;16.11;60.67
77003;BME280;65939;50.060;14.288;2024-03-23T09:03:41;95910.16;;;16.00;61.83
77003;BME280;65939;50.060;14.288;2024-03-23T09:05:42;95926.59;;;15.84;61.84
77003;BME280;65939;50.060;14.288;2024-03-23T09:07:43;95914.63;;;15.69;61.56
77003;BME280;65939;50.060;14.288;2024-03-23T09:09:43;95917.81;;;15.53;61.85
77003;BME280;65939;50.060;14.288;2024-03-23T09:11:44;95929.94;;;15.36;62.08
77003;BME280;65939;50.060;14.288;2024-03-23T09:13:45;95937.22;;;15.15;63.84
77003;BME280;65939;50.060;14.288;2024-03-23T09:15:47;95945.88;;;14.97;65.05
77003;BME280;65939;50.060;14.288;2024-03-23T09:17:48;95949.88;;;14.81;64.96
77003;BME280;65939;50.060;14.288;2024-03-23T09:19:49;95953.44;;;14.62;65.78
77003;BME280;65939;50.060;14.288;2024-03-23T09:21:50;95965.91;;;14.42;67.40
77003;BME280;65939;50.060;14.288;2024-03-23T09:23:50;95973.31;;;14.20;68.91
77003;BME280;65939;50.060;14.288;2024-03-23T09:25:51;95960.72;;;13.90;71.68
77003;BME280;65939;50.060;14.288;2024-03-23T09:27:52;95941.28;;;13.66;73.16
77003;BME280;65939;50.060;14.288;2024-03-23T09:29:52;95955.66;;;13.50;74.04
77003;BME280;65939;50.060;14.288;2024-03-23T09:31:53;95945.41;;;13.35;75.46
77003;BME280;65939;50.060;14.288;2024-03-23T09:33:54;95945.25;;;13.24;76.26
77003;BME280;65939;50.060;14.288;2024-03-23T09:35:54;95943.59;;;13.16;75.71
77003;BME280;65939;50.060;14.288;2024-03-23T09:37:55;95937.97;;;13.12;76.65
77003;BME280;65939;50.060;14.288;2024-03-23T09:39:57;95933.16;;;13.09;76.30
77003;BME280;65939;50.060;14.288;2024-03-23T09:41:58;95931.94;;;13.05;76.99
77003;BME280;65939;50.060;14.288;2024-03-23T09:43:58;95938.00;;;13.06;75.44
77003;BME280;65939;50.060;14.288;2024-03-23T09:45:59;95927.31;;;13.07;77.21
77003;BME280;65939;50.060;14.288;2024-03-23T09:48:01;95927.94;;;13.03;77.02
77003;BME280;65939;50.060;14.288;2024-03-23T09:50:03;95941.81;;;12.97;76.92
77003;BME280;65939;50.060;14.288;2024-03-23T09:52:05;95946.88;;;12.91;77.26
77003;BME280;65939;50.060;14.288;2024-03-23T09:54:06;95950.50;;;12.84;76.77
77003;BME280;65939;50.060;14.288;2024-03-23T09:56:07;95962.59;;;12.78;76.41
77003;BME280;65939;50.060;14.288;2024-03-23T09:58:12;95974.28;;;12.69;77.77
77003;BME280;65939;50.060;14.288;2024-03-23T10:00:13;95962.19;;;12.68;76.11
77003;BME280;65939;50.060;14.288;2024-03-23T10:02:15;95977.50;;;12.71;76.65
77003;BME280;65939;50.060;14.288;2024-03-23T10:04:36;95970.25;;;12.80;75.92
77003;BME280;65939;50.060;14.288;2024-03-23T10:06:37;95988.00;;;12.84;75.79
77003;BME280;65939;50.060;14.288;2024-03-23T10:08:38;95981.34;;;12.88;74.80
77003;BME280;65939;50.060;14.288;2024-03-23T10:10:39;95986.75;;;12.93;75.39
77003;BME280;65939;50.060;14.288;2024-03-23T10:12:45;95981.75;;;12.99;74.34
77003;BME280;65939;50.060;14.288;2024-03-23T10:14:47;95987.97;;;12.91;75.20
77003;BME280;65939;50.060;14.288;2024-03-23T10:16:48;95968.81;;;12.90;75.89
77003;BME280;65939;50.060;14.288;2024-03-23T10:18:49;95983.75;;;12.90;75.78
77003;BME280;65939;50.060;14.288;2024-03-23T10:21:09;95968.25;;;12.82;75.39
77003;BME280;65939;50.060;14.288;2024-03-23T10:23:17;95991.19;;;12.80;76.27
77003;BME280;65939;50.060;14.288;2024-03-23T10:25:22;95991.00;;;12.81;75.88
77003;BME280;65939;50.060;14.288;2024-03-23T10:27:23;96004.09;;;12.81;76.03
77003;BME280;65939;50.060;14.288;2024-03-23T10:29:24;96002.47;;;12.80;75.43
77003;BME280;65939;50.060;14.288;2024-03-23T10:31:29;96015.38;;;12.75;76.48
77003;BME280;65939;50.060;14.288;2024-03-23T10:33:30;96023.44;;;12.80;75.68
77003;BME280;65939;50.060;14.288;2024-03-23T10:35:31;96006.53;;;12.89;76.42
77003;BME280;65939;50.060;14.288;2024-03-23T10:37:33;96011.34;;;12.92;76.47
77003;BME280;65939;50.060;14.288;2024-03-23T10:39:35;96020.25;;;12.91;76.46
77003;BME280;65939;50.060;14.288;2024-03-23T10:41:39;96018.22;;;12.93;75.67
77003;BME280;65939;50.060;14.288;2024-03-23T10:43:43;96006.94;;;13.00;75.32
77003;BME280;65939;50.060;14.288;2024-03-23T10:45:45;96013.78;;;13.07;75.19
77003;BME280;65939;50.060;14.288;2024-03-23T10:47:46;96016.16;;;13.09;74.94
77003;BME280;65939;50.060;14.288;2024-03-23T10:49:48;96010.53;;;13.12;75.76
77003;BME280;65939;50.060;14.288;2024-03-23T10:51:49;96002.47;;;13.20;75.32
77003;BME280;65939;50.060;14.288;2024-03-23T10:53:53;96003.28;;;13.21;74.63
77003;BME280;65939;50.060;14.288;2024-03-23T10:55:56;96007.94;;;13.25;74.06
77003;BME280;65939;50.060;14.288;2024-03-23T10:57:59;96000.84;;;13.39;74.99
77003;BME280;65939;50.060;14.288;2024-03-23T11:00:02;96000.44;;;13.49;74.25
77003;BME280;65939;50.060;14.288;2024-03-23T11:02:05;96004.44;;;13.51;73.21
77003;BME280;65939;50.060;14.288;2024-03-23T11:04:08;96007.28;;;13.56;73.61
77003;BME280;65939;50.060;14.288;2024-03-23T11:06:09;96017.94;;;13.61;72.71
77003;BME280;65939;50.060;14.288;2024-03-23T11:08:09;96003.78;;;13.69;72.73
77003;BME280;65939;50.060;14.288;2024-03-23T11:10:25;96013.44;;;13.82;72.76
77003;BME280;65939;50.060;14.288;2024-03-23T11:12:28;95993.84;;;13.91;71.32
77003;BME280;65939;50.060;14.288;2024-03-23T11:14:32;95990.97;;;13.99;70.58
77003;BME280;65939;50.060;14.288;2024-03-23T11:16:33;95997.03;;;14.00;69.66
77003;BME280;65939;50.060;14.288;2024-03-23T11:18:36;95995.41;;;14.05;69.38
77003;BME280;65939;50.060;14.288;2024-03-23T11:20:37;95999.75;;;14.18;69.64
77003;BME280;65939;50.060;14.288;2024-03-23T11:24:41;95995.47;;;14.30;67.47
77003;BME280;65939;50.060;14.288;2024-03-23T11:26:43;96001.13;;;14.27;66.45
77003;BME280;65939;50.060;14.288;2024-03-23T11:28:44;96006.97;;;14.29;66.90
77003;BME280;65939;50.060;14.288;2024-03-23T11:30:45;96012.41;;;14.34;65.37